createdAt,value
2022-10-07T00:00:43.657Z,96074.63
2022-10-07T00:03:10.211Z,96073.69
2022-10-07T00:05:36.772Z,96073.88
2022-10-07T00:08:03.413Z,96071.50
2022-10-07T00:10:29.958Z,96073.41
2022-10-07T00:12:57.113Z,96067.44
2022-10-07T00:15:23.775Z,96069.06
2022-10-07T00:17:50.294Z,96066.31
2022-10-07T00:20:16.886Z,96075.03
2022-10-07T00:22:43.680Z,96067.97
2022-10-07T00:25:10.267Z,96068.81
2022-10-07T00:27:37.283Z,96066.28
2022-10-07T00:30:04.365Z,96056.06
2022-10-07T00:32:30.954Z,96060.13
2022-10-07T00:34:57.499Z,96053.78
2022-10-07T00:37:24.056Z,96063.50
2022-10-07T00:39:50.666Z,96064.50
2022-10-07T00:42:18.059Z,96058.03
2022-10-07T00:44:45.558Z,96061.44
2022-10-07T00:47:24.641Z,96059.81
2022-10-07T00:49:54.394Z,96053.84
2022-10-07T00:52:24.079Z,96046.78
2022-10-07T00:54:53.502Z,96054.53
2022-10-07T00:57:24.904Z,96051.00
2022-10-07T00:59:51.976Z,96047.13
2022-10-07T01:02:18.673Z,96054.25
2022-10-07T01:04:46.295Z,96051.03
2022-10-07T01:07:13.256Z,96051.03
2022-10-07T01:09:41.522Z,96041.50
2022-10-07T01:12:17.221Z,96051.00
2022-10-07T01:14:46.826Z,96049.75
2022-10-07T01:17:28.319Z,96052.31
2022-10-07T01:19:54.895Z,96042.44
2022-10-07T01:22:38.292Z,96042.31
2022-10-07T01:25:13.938Z,96048.75
2022-10-07T01:27:47.249Z,96042.66
2022-10-07T01:30:15.355Z,96045.88
2022-10-07T01:33:04.439Z,96039.44
2022-10-07T01:35:34.020Z,96035.88
2022-10-07T01:38:04.595Z,96038.78
2022-10-07T01:40:40.669Z,96036.19
2022-10-07T01:43:07.310Z,96039.09
2022-10-07T01:45:37.942Z,96033.63
2022-10-07T01:48:04.577Z,96028.13
2022-10-07T01:50:32.959Z,96031.03
2022-10-07T01:53:18.913Z,96035.22
2022-10-07T01:55:48.632Z,96030.41
2022-10-07T01:58:15.272Z,96035.41
2022-10-07T02:00:46.704Z,96027.81
2022-10-07T02:03:14.628Z,96029.91
2022-10-07T02:06:00.851Z,96033.63
2022-10-07T02:08:32.415Z,96034.28
2022-10-07T02:11:11.820Z,96035.53
2022-10-07T02:13:51.839Z,96042.97
2022-10-07T02:16:35.428Z,96041.03
2022-10-07T02:19:04.352Z,96033.28
2022-10-07T02:21:33.203Z,96045.84
2022-10-07T02:24:00.759Z,96033.28
2022-10-07T02:26:29.063Z,96037.34
2022-10-07T02:28:57.993Z,96035.88
2022-10-07T02:31:30.404Z,96036.66
2022-10-07T02:34:00.659Z,96040.38
2022-10-07T02:36:32.933Z,96040.84
2022-10-07T02:39:01.361Z,96037.13
2022-10-07T02:41:47.172Z,96040.34
2022-10-07T02:44:25.954Z,96032.66
2022-10-07T02:47:00.998Z,96029.59
2022-10-07T02:49:28.639Z,96033.75
2022-10-07T02:52:05.484Z,96034.88
2022-10-07T02:54:39.459Z,96042.09
2022-10-07T02:57:08.269Z,96037.44
2022-10-07T02:59:35.291Z,96035.19
2022-10-07T03:02:03.876Z,96025.72
2022-10-07T03:04:31.472Z,96032.97
2022-10-07T03:06:58.863Z,96036.50
2022-10-07T03:09:25.873Z,96032.31
2022-10-07T03:11:52.534Z,96034.72
2022-10-07T03:14:19.255Z,96047.78
2022-10-07T03:16:46.102Z,96039.06
2022-10-07T03:19:12.770Z,96030.06
2022-10-07T03:21:57.906Z,96039.41
2022-10-07T03:24:24.634Z,96035.38
2022-10-07T03:26:52.321Z,96041.97
2022-10-07T03:29:19.827Z,96028.78
2022-10-07T03:31:46.636Z,96029.06
2022-10-07T03:34:13.391Z,96034.53
2022-10-07T03:36:42.798Z,96029.97
2022-10-07T03:39:10.554Z,96026.75
2022-10-07T03:41:37.311Z,96031.94
2022-10-07T03:44:05.633Z,96031.25
2022-10-07T03:46:32.688Z,96020.25
2022-10-07T03:49:00.255Z,96024.13
2022-10-07T03:51:28.683Z,96033.31
2022-10-07T03:53:58.100Z,96029.50
2022-10-07T03:56:29.481Z,96033.09
2022-10-07T03:58:56.066Z,96036.63
2022-10-07T04:01:24.240Z,96030.94
2022-10-07T04:03:55.914Z,96037.38
2022-10-07T04:06:23.656Z,96039.25
2022-10-07T04:08:55.220Z,96038.25
2022-10-07T04:11:24.335Z,96034.75
2022-10-07T04:13:53.866Z,96033.16
2022-10-07T04:16:23.143Z,96040.84
2022-10-07T04:18:50.180Z,96042.13
2022-10-07T04:21:16.983Z,96036.19
2022-10-07T04:23:43.690Z,96035.81
2022-10-07T04:26:11.820Z,96034.19
2022-10-07T04:28:42.758Z,96038.31
2022-10-07T04:31:12.388Z,96037.97
2022-10-07T04:33:42.220Z,96037.09
2022-10-07T04:36:11.332Z,96043.53
2022-10-07T04:38:50.305Z,96030.03
2022-10-07T04:41:18.954Z,96034.53
2022-10-07T04:43:50.898Z,96028.28
2022-10-07T04:46:19.983Z,96024.91
2022-10-07T04:48:51.510Z,96021.38
2022-10-07T04:51:23.074Z,96033.25
2022-10-07T04:53:56.839Z,96028.63
2022-10-07T04:56:28.764Z,96030.38
2022-10-07T04:58:56.281Z,96050.69
2022-10-07T05:01:23.946Z,96049.59
2022-10-07T05:03:50.956Z,96048.13
2022-10-07T05:06:18.411Z,96053.91
2022-10-07T05:08:46.896Z,96049.41
2022-10-07T05:11:14.148Z,96018.78
2022-10-07T05:13:50.502Z,96054.75
2022-10-07T05:16:18.396Z,96050.69
2022-10-07T05:18:46.206Z,96062.63
2022-10-07T05:21:14.209Z,96055.22
2022-10-07T05:23:44.781Z,96057.13
2022-10-07T05:26:15.842Z,96065.84
2022-10-07T05:28:48.723Z,96079.34
2022-10-07T05:31:20.379Z,96077.19
2022-10-07T05:33:52.243Z,96080.72
2022-10-07T05:36:21.648Z,96085.03
2022-10-07T05:38:49.720Z,96085.28
2022-10-07T05:41:16.397Z,96093.94
2022-10-07T05:43:43.347Z,96086.72
2022-10-07T05:46:16.029Z,96092.59
2022-10-07T05:48:48.249Z,96094.72
2022-10-07T05:51:17.753Z,96084.38
2022-10-07T05:53:46.908Z,96094.72
2022-10-07T05:56:18.246Z,96102.06
2022-10-07T05:58:46.082Z,96111.06
2022-10-07T06:01:17.848Z,96103.44
2022-10-07T06:03:48.350Z,96101.16
2022-10-07T06:06:15.387Z,96103.31
2022-10-07T06:08:42.042Z,96093.97
2022-10-07T06:11:49.756Z,96100.13
2022-10-07T06:14:17.441Z,96100.41
2022-10-07T06:16:44.316Z,96101.94
2022-10-07T06:19:23.967Z,96105.34
2022-10-07T06:21:55.560Z,96107.13
2022-10-07T06:24:22.810Z,96114.56
2022-10-07T06:26:49.967Z,96105.28
2022-10-07T06:29:17.772Z,96106.28
2022-10-07T06:31:46.597Z,96109.16
2022-10-07T06:34:13.471Z,96120.03
2022-10-07T06:36:40.278Z,96110.66
2022-10-07T06:39:06.917Z,96115.25
2022-10-07T06:41:38.257Z,96116.31
2022-10-07T06:44:31.283Z,96121.84
2022-10-07T06:46:58.540Z,96124.59
2022-10-07T06:49:26.005Z,96121.31
2022-10-07T06:51:52.661Z,96117.25
2022-10-07T06:54:19.460Z,96120.84
2022-10-07T06:56:46.012Z,96121.38
2022-10-07T06:59:12.755Z,96120.84
2022-10-07T07:01:51.001Z,96122.81
2022-10-07T07:04:17.949Z,96130.91
2022-10-07T07:06:47.948Z,96132.13
2022-10-07T07:09:15.191Z,96142.97
2022-10-07T07:11:45.307Z,96133.00
2022-10-07T07:14:25.938Z,96133.59
2022-10-07T07:17:06.032Z,96131.03
2022-10-07T07:19:32.804Z,96125.44
2022-10-07T07:22:00.130Z,96122.59
2022-10-07T07:24:27.619Z,96125.19
2022-10-07T07:26:54.535Z,96126.50
2022-10-07T07:29:24.575Z,96120.50
2022-10-07T07:31:56.146Z,96123.28
2022-10-07T07:34:25.196Z,96125.25
2022-10-07T07:36:52.281Z,96115.59
2022-10-07T07:39:21.872Z,96117.94
2022-10-07T07:41:55.432Z,96127.88
2022-10-07T07:44:23.922Z,96125.50
2022-10-07T07:46:53.878Z,96119.50
2022-10-07T07:49:24.762Z,96121.91
2022-10-07T07:51:52.118Z,96118.59
2022-10-07T07:54:25.544Z,96116.59
2022-10-07T07:56:52.156Z,96105.22
2022-10-07T07:59:20.745Z,96109.56
2022-10-07T08:01:49.371Z,96103.81
2022-10-07T08:04:16.614Z,96100.53
2022-10-07T08:06:43.527Z,96108.31
2022-10-07T08:09:10.140Z,96109.09
2022-10-07T08:11:37.897Z,96101.53
2022-10-07T08:14:04.872Z,96098.59
2022-10-07T08:16:34.571Z,96094.72
2022-10-07T08:19:01.183Z,96100.81
2022-10-07T08:21:32.854Z,96105.72
2022-10-07T08:24:01.619Z,96094.53
2022-10-07T08:26:34.049Z,96087.00
2022-10-07T08:29:02.802Z,96087.00
2022-10-07T08:31:31.105Z,96082.91
2022-10-07T08:33:59.397Z,96085.00
2022-10-07T08:36:27.446Z,96071.28
2022-10-07T08:38:54.310Z,96064.28
2022-10-07T08:41:39.712Z,96071.91
2022-10-07T08:44:18.249Z,96070.41
2022-10-07T08:47:03.345Z,96065.84
2022-10-07T08:49:33.539Z,96067.75
2022-10-07T08:52:03.273Z,96062.16
2022-10-07T08:54:33.423Z,96056.72
2022-10-07T08:57:07.371Z,96051.63
2022-10-07T08:59:35.290Z,96049.81
2022-10-07T09:02:14.039Z,96040.81
2022-10-07T09:04:54.692Z,96043.03
2022-10-07T09:07:41.008Z,96032.38
2022-10-07T09:10:10.349Z,96028.44
2022-10-07T09:12:42.532Z,96022.13
2022-10-07T09:15:18.989Z,96020.03
2022-10-07T09:17:58.732Z,96021.13
2022-10-07T09:20:36.021Z,96014.75
2022-10-07T09:23:04.653Z,96013.38
2022-10-07T09:25:31.607Z,96010.84
2022-10-07T09:27:58.346Z,96016.66
2022-10-07T09:30:25.591Z,96016.03
2022-10-07T09:32:56.222Z,96017.41
2022-10-07T09:35:24.131Z,96010.81
2022-10-07T09:38:00.916Z,96012.63
2022-10-07T09:40:27.476Z,96009.88
2022-10-07T09:42:54.716Z,96005.81
2022-10-07T09:45:41.492Z,96006.25
2022-10-07T09:48:17.500Z,96005.09
2022-10-07T09:50:46.808Z,96001.88
2022-10-07T09:53:19.630Z,95990.72
2022-10-07T09:55:46.590Z,95985.28
2022-10-07T09:58:18.340Z,95989.78
2022-10-07T10:00:46.161Z,95992.94
2022-10-07T10:03:13.018Z,95985.44
2022-10-07T10:06:00.046Z,95981.25
2022-10-07T10:08:28.677Z,95976.25
2022-10-07T10:10:56.953Z,95974.47
2022-10-07T10:13:25.828Z,95968.19
2022-10-07T10:15:52.510Z,95968.09
2022-10-07T10:18:28.470Z,95960.72
2022-10-07T10:20:55.458Z,95958.69
2022-10-07T10:23:25.068Z,95948.66
2022-10-07T10:26:16.369Z,95953.94
2022-10-07T10:28:49.874Z,95951.84
2022-10-07T10:31:35.967Z,95949.47
2022-10-07T10:34:05.705Z,95948.41
2022-10-07T10:36:37.371Z,95945.41
2022-10-07T10:39:06.243Z,95940.69
2022-10-07T10:41:43.191Z,95936.75
2022-10-07T10:44:45.422Z,95930.03
2022-10-07T10:47:17.860Z,95931.09
2022-10-07T10:49:51.193Z,95926.44
2022-10-07T10:52:24.255Z,95933.75
2022-10-07T10:55:01.267Z,95923.56
2022-10-07T10:57:36.260Z,95919.47
2022-10-07T11:00:13.393Z,95926.75
2022-10-07T11:02:47.794Z,95917.41
2022-10-07T11:05:17.969Z,95914.31
2022-10-07T11:07:51.050Z,95905.25
2022-10-07T11:10:22.912Z,95899.06
2022-10-07T11:13:00.230Z,95902.75
2022-10-07T11:15:29.071Z,95898.59
2022-10-07T11:17:59.478Z,95895.72
2022-10-07T11:20:47.929Z,95892.00
2022-10-07T11:23:23.383Z,95892.91
2022-10-07T11:25:53.301Z,95888.66
2022-10-07T11:28:25.231Z,95889.41
2022-10-07T11:31:18.045Z,95895.13
2022-10-07T11:33:49.311Z,95883.88
2022-10-07T11:36:32.557Z,95884.44
2022-10-07T11:38:59.222Z,95880.63
2022-10-07T11:41:29.982Z,95879.19
2022-10-07T11:43:58.759Z,95884.94
2022-10-07T11:46:45.280Z,95875.38
2022-10-07T11:49:18.872Z,95869.78
2022-10-07T11:52:15.065Z,95867.19
2022-10-07T11:54:43.624Z,95874.06
2022-10-07T11:57:21.048Z,95875.88
2022-10-07T11:59:51.645Z,95876.94
2022-10-07T12:02:30.586Z,95881.78
2022-10-07T12:04:58.452Z,95875.44
2022-10-07T12:07:35.905Z,95873.97
2022-10-07T12:10:03.355Z,95876.78
2022-10-07T12:12:50.281Z,95866.53
2022-10-07T12:15:30.835Z,95871.72
2022-10-07T12:18:04.305Z,95869.47
2022-10-07T12:20:37.348Z,95870.72
2022-10-07T12:23:25.942Z,95876.78
2022-10-07T12:26:04.826Z,95885.69
2022-10-07T12:28:43.402Z,95877.13
2022-10-07T12:31:15.970Z,95861.69
2022-10-07T12:33:45.782Z,95876.75
2022-10-07T12:36:18.451Z,95868.38
2022-10-07T12:39:00.031Z,95864.97
2022-10-07T12:41:28.102Z,95853.22
2022-10-07T12:44:13.960Z,95860.56
2022-10-07T12:46:40.556Z,95853.75
2022-10-07T12:49:25.839Z,95855.06
2022-10-07T12:51:57.710Z,95851.22
2022-10-07T12:54:30.271Z,95849.53
2022-10-07T12:56:56.941Z,95838.63
2022-10-07T12:59:45.254Z,95848.22
2022-10-07T13:02:31.466Z,95830.06
2022-10-07T13:04:58.255Z,95828.28
2022-10-07T13:07:46.194Z,95834.31
2022-10-07T13:10:30.896Z,95829.91
2022-10-07T13:13:06.777Z,95830.31
2022-10-07T13:15:50.316Z,95833.97
2022-10-07T13:18:20.059Z,95829.50
2022-10-07T13:20:52.433Z,95830.84
2022-10-07T13:23:24.614Z,95824.72
2022-10-07T13:25:55.118Z,95818.00
2022-10-07T13:28:23.979Z,95823.16
2022-10-07T13:30:51.453Z,95823.44
2022-10-07T13:33:17.970Z,95828.59
2022-10-07T13:35:44.563Z,95825.88
2022-10-07T13:38:27.595Z,95820.22
2022-10-07T13:40:56.608Z,95812.84
2022-10-07T13:43:25.881Z,95814.41
2022-10-07T13:45:52.465Z,95812.63
2022-10-07T13:48:22.204Z,95811.56
2022-10-07T13:50:50.850Z,95812.16
2022-10-07T13:53:21.730Z,95811.53
2022-10-07T13:55:48.738Z,95809.28
2022-10-07T13:58:15.577Z,95806.94
2022-10-07T14:00:44.692Z,95807.56
2022-10-07T14:03:15.229Z,95813.97
2022-10-07T14:05:49.125Z,95807.22
2022-10-07T14:08:21.255Z,95813.31
2022-10-07T14:11:05.038Z,95813.63
2022-10-07T14:13:32.661Z,95808.81
2022-10-07T14:16:02.349Z,95808.44
2022-10-07T14:18:31.444Z,95806.50
2022-10-07T14:21:08.792Z,95811.56
2022-10-07T14:23:36.668Z,95806.31
2022-10-07T14:26:07.546Z,95809.06
2022-10-07T14:28:36.307Z,95804.19
2022-10-07T14:31:27.434Z,95813.28
2022-10-07T14:34:15.916Z,95805.94
2022-10-07T14:37:03.289Z,95811.94
2022-10-07T14:39:40.117Z,95811.47
2022-10-07T14:42:10.904Z,95800.88
2022-10-07T14:44:38.069Z,95807.28
2022-10-07T14:47:15.104Z,95802.66
2022-10-07T14:49:49.497Z,95796.28
2022-10-07T14:52:19.307Z,95800.47
2022-10-07T14:54:46.014Z,95797.19
2022-10-07T14:57:12.522Z,95803.78
2022-10-07T14:59:39.213Z,95800.06
2022-10-07T15:02:06.740Z,95800.53
2022-10-07T15:04:33.695Z,95799.00
2022-10-07T15:07:03.174Z,95800.81
2022-10-07T15:09:29.775Z,95806.66
2022-10-07T15:11:56.444Z,95802.50
2022-10-07T15:14:23.239Z,95797.56
2022-10-07T15:16:50.488Z,95796.47
2022-10-07T15:19:17.113Z,95796.66
2022-10-07T15:21:43.724Z,95787.22
2022-10-07T15:24:11.139Z,95791.75
2022-10-07T15:26:37.706Z,95791.41
2022-10-07T15:29:07.953Z,95796.34
2022-10-07T15:31:34.705Z,95789.41
2022-10-07T15:34:01.370Z,95794.00
2022-10-07T15:36:29.391Z,95783.78
2022-10-07T15:38:58.922Z,95789.66
2022-10-07T15:41:30.452Z,95781.56
2022-10-07T15:44:01.629Z,95780.47
2022-10-07T15:46:28.398Z,95776.03
2022-10-07T15:48:56.281Z,95780.06
2022-10-07T15:51:23.655Z,95780.88
2022-10-07T15:53:50.205Z,95778.63
2022-10-07T15:56:16.865Z,95779.50
2022-10-07T15:58:44.408Z,95786.16
2022-10-07T16:01:11.102Z,95783.81
2022-10-07T16:03:39.938Z,95778.13
2022-10-07T16:06:22.834Z,95780.28
2022-10-07T16:08:50.485Z,95775.69
2022-10-07T16:11:17.389Z,95776.31
2022-10-07T16:13:44.877Z,95784.97
2022-10-07T16:16:12.635Z,95781.78
2022-10-07T16:18:40.496Z,95782.91
2022-10-07T16:21:08.047Z,95778.31
2022-10-07T16:23:35.644Z,95783.09
2022-10-07T16:26:13.122Z,95781.50
2022-10-07T16:29:03.012Z,95783.97
2022-10-07T16:31:30.502Z,95789.69
2022-10-07T16:33:57.330Z,95786.63
2022-10-07T16:36:24.598Z,95791.50
2022-10-07T16:38:52.251Z,95796.75
2022-10-07T16:41:19.295Z,95802.84
2022-10-07T16:43:46.157Z,95808.75
2022-10-07T16:46:14.364Z,95810.34
2022-10-07T16:48:42.174Z,95809.44
2022-10-07T16:51:09.896Z,95814.13
2022-10-07T16:53:36.636Z,95817.31
2022-10-07T16:56:04.706Z,95812.06
2022-10-07T16:58:31.723Z,95815.16
2022-10-07T17:01:09.822Z,95820.50
2022-10-07T17:03:37.397Z,95825.25
2022-10-07T17:06:04.687Z,95823.22
2022-10-07T17:08:39.290Z,95833.78
2022-10-07T17:11:09.171Z,95832.63
2022-10-07T17:13:37.977Z,95834.03
2022-10-07T17:16:05.893Z,95830.41
2022-10-07T17:18:33.942Z,95839.56
2022-10-07T17:21:00.947Z,95831.78
2022-10-07T17:23:27.628Z,95832.69
2022-10-07T17:25:54.616Z,95843.97
2022-10-07T17:28:24.339Z,95837.38
2022-10-07T17:30:54.680Z,95839.34
2022-10-07T17:33:21.353Z,95839.00
2022-10-07T17:35:48.015Z,95835.25
2022-10-07T17:38:14.665Z,95836.72
2022-10-07T17:40:43.539Z,95843.13
2022-10-07T17:43:10.115Z,95833.16
2022-10-07T17:45:36.907Z,95834.19
2022-10-07T17:48:04.040Z,95827.06
2022-10-07T17:50:31.432Z,95826.78
2022-10-07T17:52:58.006Z,95830.47
2022-10-07T17:55:24.641Z,95830.38
2022-10-07T17:57:51.263Z,95836.75
2022-10-07T18:00:18.060Z,95825.03
2022-10-07T18:02:44.692Z,95832.41
2022-10-07T18:05:11.335Z,95831.59
2022-10-07T18:07:39.274Z,95838.63
2022-10-07T18:10:06.152Z,95841.09
2022-10-07T18:12:51.463Z,95838.34
2022-10-07T18:15:20.722Z,95840.34
2022-10-07T18:17:50.729Z,95847.19
2022-10-07T18:20:21.758Z,95841.03
2022-10-07T18:22:55.725Z,95846.91
2022-10-07T18:25:22.508Z,95848.19
2022-10-07T18:27:49.329Z,95855.22
2022-10-07T18:30:16.295Z,95852.84
2022-10-07T18:32:42.974Z,95842.97
2022-10-07T18:35:09.645Z,95844.22
2022-10-07T18:37:38.346Z,95848.66
2022-10-07T18:40:05.160Z,95850.69
2022-10-07T18:42:31.716Z,95845.47
2022-10-07T18:44:58.266Z,95843.34
2022-10-07T18:47:24.839Z,95841.13
2022-10-07T18:49:51.910Z,95839.09
2022-10-07T18:52:18.571Z,95845.59
2022-10-07T18:54:45.198Z,95835.81
2022-10-07T18:57:11.766Z,95835.22
2022-10-07T18:59:38.473Z,95834.34
2022-10-07T19:02:05.199Z,95838.72
2022-10-07T19:04:32.091Z,95837.59
2022-10-07T19:06:58.696Z,95838.63
2022-10-07T19:09:26.444Z,95843.31
2022-10-07T19:11:53.053Z,95840.94
2022-10-07T19:14:20.188Z,95839.75
2022-10-07T19:16:49.334Z,95845.34
2022-10-07T19:19:17.522Z,95838.16
2022-10-07T19:21:50.265Z,95850.94
2022-10-07T19:24:17.485Z,95844.97
2022-10-07T19:26:46.308Z,95849.78
2022-10-07T19:29:13.810Z,95849.78
2022-10-07T19:31:41.905Z,95851.38
2022-10-07T19:34:10.175Z,95854.56
2022-10-07T19:36:40.136Z,95846.16
2022-10-07T19:39:07.066Z,95856.16
2022-10-07T19:41:34.627Z,95853.53
2022-10-07T19:44:02.048Z,95847.72
2022-10-07T19:46:30.170Z,95846.50
2022-10-07T19:48:58.908Z,95844.88
2022-10-07T19:51:26.915Z,95842.47
2022-10-07T19:53:53.550Z,95848.28
2022-10-07T19:56:22.988Z,95852.88
2022-10-07T19:58:50.935Z,95852.09
2022-10-07T20:01:19.001Z,95847.50
2022-10-07T20:03:45.631Z,95848.47
2022-10-07T20:06:13.285Z,95854.91
2022-10-07T20:08:43.859Z,95856.44
2022-10-07T20:11:11.816Z,95850.44
2022-10-07T20:13:38.535Z,95854.44
2022-10-07T20:16:06.457Z,95858.81
2022-10-07T20:18:34.103Z,95852.75
2022-10-07T20:21:01.594Z,95849.13
2022-10-07T20:23:32.755Z,95841.28
2022-10-07T20:26:03.828Z,95843.66
2022-10-07T20:28:31.259Z,95837.06
2022-10-07T20:31:02.246Z,95838.69
2022-10-07T20:33:29.046Z,95831.03
2022-10-07T20:36:01.392Z,95839.78
2022-10-07T20:38:28.198Z,95837.44
2022-10-07T20:41:13.242Z,95834.91
2022-10-07T20:43:40.892Z,95837.00
2022-10-07T20:46:07.729Z,95832.78
2022-10-07T20:48:34.850Z,95828.19
2022-10-07T20:51:08.530Z,95832.56
2022-10-07T20:53:35.233Z,95830.69
2022-10-07T20:56:05.185Z,95837.28
2022-10-07T20:58:32.417Z,95840.50
2022-10-07T21:01:06.346Z,95835.91
2022-10-07T21:03:33.649Z,95839.78
2022-10-07T21:06:00.240Z,95838.56
2022-10-07T21:08:26.781Z,95840.88
2022-10-07T21:10:59.904Z,95833.47
2022-10-07T21:13:27.390Z,95834.50
2022-10-07T21:15:55.577Z,95836.44
2022-10-07T21:18:22.481Z,95841.50
2022-10-07T21:20:53.002Z,95832.97
2022-10-07T21:23:23.723Z,95824.00
2022-10-07T21:25:54.498Z,95825.09
2022-10-07T21:28:21.287Z,95834.25
2022-10-07T21:30:54.770Z,95838.41
2022-10-07T21:33:21.518Z,95835.06
2022-10-07T21:35:48.142Z,95830.75
2022-10-07T21:38:15.018Z,95834.72
2022-10-07T21:40:41.608Z,95829.78
2022-10-07T21:43:08.263Z,95835.06
2022-10-07T21:45:34.863Z,95825.09
2022-10-07T21:48:02.530Z,95824.00
2022-10-07T21:50:29.123Z,95824.09
2022-10-07T21:52:56.799Z,95815.59
2022-10-07T21:55:23.508Z,95811.03
2022-10-07T21:57:50.967Z,95817.44
2022-10-07T22:00:17.642Z,95770.69
2022-10-07T22:02:44.819Z,95804.66
2022-10-07T22:05:14.374Z,95806.72
2022-10-07T22:07:59.680Z,95799.56
2022-10-07T22:10:26.282Z,95803.88
2022-10-07T22:12:52.948Z,95797.72
2022-10-07T22:15:20.292Z,95801.34
2022-10-07T22:17:46.956Z,95799.19
2022-10-07T22:20:13.620Z,95798.19
2022-10-07T22:22:40.295Z,95796.28
2022-10-07T22:25:07.969Z,95792.56
2022-10-07T22:27:34.512Z,95797.75
2022-10-07T22:30:01.476Z,95790.81
2022-10-07T22:32:28.284Z,95788.06
2022-10-07T22:35:13.531Z,95794.00
2022-10-07T22:37:40.782Z,95784.44
2022-10-07T22:40:07.739Z,95790.16
2022-10-07T22:42:35.974Z,95777.84
2022-10-07T22:45:06.341Z,95781.53
2022-10-07T22:47:33.658Z,95774.63
2022-10-07T22:50:01.088Z,95777.84
2022-10-07T22:52:29.259Z,95774.16
2022-10-07T22:54:55.871Z,95774.88
2022-10-07T22:57:23.516Z,95771.97
2022-10-07T22:59:50.098Z,95771.47
2022-10-07T23:02:16.757Z,95773.38
2022-10-07T23:04:43.539Z,95765.47
2022-10-07T23:07:10.739Z,95764.47
2022-10-07T23:09:37.330Z,95763.97
2022-10-07T23:12:05.977Z,95764.69
2022-10-07T23:14:32.590Z,95761.47
2022-10-07T23:16:59.461Z,95757.47
2022-10-07T23:19:26.305Z,95757.91
2022-10-07T23:21:52.888Z,95754.72
2022-10-07T23:24:19.461Z,95751.13
2022-10-07T23:26:46.565Z,95754.06
2022-10-07T23:29:13.341Z,95755.31
2022-10-07T23:31:40.034Z,95755.50
2022-10-07T23:34:06.675Z,95753.44
2022-10-07T23:36:34.815Z,95758.75
2022-10-07T23:39:01.587Z,95754.41
2022-10-07T23:41:29.596Z,95748.44
2022-10-07T23:43:57.484Z,95746.31
2022-10-07T23:46:25.148Z,95737.91
2022-10-07T23:48:52.149Z,95737.91
2022-10-07T23:51:19.984Z,95734.72
2022-10-07T23:53:46.761Z,95736.03
2022-10-07T23:56:13.443Z,95734.47
2022-10-07T23:58:40.473Z,95729.28
